createdAt,value
2018-03-24T00:01:53.254Z,4.90
2018-03-24T00:04:21.514Z,4.90
2018-03-24T00:06:49.837Z,4.90
2018-03-24T00:09:18.073Z,4.80
2018-03-24T00:11:45.569Z,4.80
2018-03-24T00:14:13.058Z,4.80
2018-03-24T00:16:41.319Z,4.90
2018-03-24T00:19:08.794Z,4.90
2018-03-24T00:21:36.262Z,4.90
2018-03-24T00:24:03.778Z,4.80
2018-03-24T00:26:31.246Z,4.90
2018-03-24T00:28:58.735Z,4.80
2018-03-24T00:31:26.212Z,4.80
2018-03-24T00:33:53.705Z,4.80
2018-03-24T00:36:21.174Z,4.80
2018-03-24T00:38:48.664Z,4.90
2018-03-24T00:41:16.150Z,4.80
2018-03-24T00:43:44.398Z,5.00
2018-03-24T00:46:11.882Z,5.00
2018-03-24T00:48:39.386Z,4.90
2018-03-24T00:51:07.629Z,4.80
2018-03-24T00:53:35.126Z,4.80
2018-03-24T00:56:03.372Z,4.80
2018-03-24T00:58:30.865Z,4.70
2018-03-24T01:00:58.338Z,4.70
2018-03-24T01:03:25.834Z,4.70
2018-03-24T01:05:54.074Z,4.60
2018-03-24T01:08:21.544Z,4.60
2018-03-24T01:10:49.041Z,4.60
2018-03-24T01:13:16.526Z,4.60
2018-03-24T01:15:44.778Z,4.70
2018-03-24T01:18:12.259Z,4.60
2018-03-24T01:20:39.749Z,4.70
2018-03-24T01:23:07.218Z,4.60
2018-03-24T01:25:34.709Z,4.60
2018-03-24T01:28:02.965Z,4.60
2018-03-24T01:30:30.471Z,4.60
2018-03-24T01:32:58.702Z,4.50
2018-03-24T01:35:26.189Z,4.50
2018-03-24T01:37:53.658Z,4.50
2018-03-24T01:40:21.147Z,4.60
2018-03-24T01:42:48.614Z,4.60
2018-03-24T01:45:16.098Z,4.60
2018-03-24T01:47:44.337Z,4.60
2018-03-24T01:50:11.876Z,4.60
2018-03-24T01:52:40.118Z,4.60
2018-03-24T01:55:07.602Z,4.60
2018-03-24T01:57:35.086Z,4.70
2018-03-24T02:00:03.360Z,4.70
2018-03-24T02:02:30.846Z,4.70
2018-03-24T02:04:59.082Z,4.70
2018-03-24T02:07:26.563Z,4.60
2018-03-24T02:09:54.034Z,4.60
2018-03-24T02:12:21.528Z,4.60
2018-03-24T02:14:49.005Z,4.60
2018-03-24T02:17:16.490Z,4.60
2018-03-24T02:19:44.724Z,4.70
2018-03-24T02:22:12.207Z,4.70
2018-03-24T02:24:53.578Z,4.80
2018-03-24T02:27:21.067Z,4.70
2018-03-24T02:29:48.540Z,4.60
2018-03-24T02:32:16.031Z,4.60
2018-03-24T02:34:43.497Z,4.50
2018-03-24T02:37:10.963Z,4.50
2018-03-24T02:39:38.446Z,4.40
2018-03-24T02:42:05.916Z,4.40
2018-03-24T02:44:33.410Z,4.50
2018-03-24T02:47:01.651Z,4.50
2018-03-24T02:49:29.134Z,4.50
2018-03-24T02:51:56.609Z,4.40
2018-03-24T02:54:24.110Z,4.40
2018-03-24T02:56:52.342Z,4.50
2018-03-24T02:59:19.836Z,4.50
2018-03-24T03:01:47.311Z,4.50
2018-03-24T03:04:14.810Z,4.50
2018-03-24T03:06:43.065Z,4.50
2018-03-24T03:09:10.554Z,4.50
2018-03-24T03:11:38.019Z,4.60
2018-03-24T03:14:05.510Z,4.60
2018-03-24T03:16:33.738Z,4.50
2018-03-24T03:19:01.202Z,4.50
2018-03-24T03:21:50.354Z,4.50
2018-03-24T03:24:18.589Z,4.50
2018-03-24T03:26:46.841Z,4.40
2018-03-24T03:29:14.314Z,4.40
2018-03-24T03:34:52.166Z,4.40
2018-03-24T03:37:19.661Z,4.40
2018-03-24T03:39:47.142Z,4.30
2018-03-24T03:42:14.635Z,4.30
2018-03-24T03:44:42.118Z,4.30
2018-03-24T03:47:09.615Z,4.30
2018-03-24T03:49:37.095Z,4.30
2018-03-24T03:52:04.615Z,4.20
2018-03-24T03:54:32.093Z,4.20
2018-03-24T03:56:59.578Z,4.30
2018-03-24T03:59:27.821Z,4.30
2018-03-24T04:01:55.309Z,4.30
2018-03-24T04:04:22.791Z,4.30
2018-03-24T04:06:50.291Z,4.30
2018-03-24T04:09:18.523Z,4.40
2018-03-24T04:11:46.003Z,4.40
2018-03-24T04:14:13.504Z,4.50
2018-03-24T04:16:41.749Z,4.50
2018-03-24T04:19:09.250Z,4.50
2018-03-24T04:21:36.734Z,4.50
2018-03-24T04:24:05.058Z,4.50
2018-03-24T04:26:32.639Z,4.40
2018-03-24T04:29:00.066Z,4.50
2018-03-24T04:31:28.351Z,4.50
2018-03-24T04:33:55.903Z,4.50
2018-03-24T04:36:23.419Z,4.50
2018-03-24T04:38:50.914Z,4.50
2018-03-24T04:41:18.411Z,4.60
2018-03-24T04:43:45.920Z,4.70
2018-03-24T04:46:14.162Z,4.50
2018-03-24T04:48:41.666Z,4.50
2018-03-24T04:51:09.142Z,4.50
2018-03-24T04:53:37.410Z,4.40
2018-03-24T04:56:04.894Z,4.40
2018-03-24T04:58:32.431Z,4.30
2018-03-24T05:00:59.928Z,4.20
2018-03-24T05:03:27.419Z,4.30
2018-03-24T05:05:55.735Z,4.40
2018-03-24T05:08:23.215Z,4.40
2018-03-24T05:10:50.711Z,4.40
2018-03-24T05:13:18.198Z,4.40
2018-03-24T05:15:45.721Z,4.40
2018-03-24T05:18:13.248Z,4.40
2018-03-24T05:20:41.510Z,4.30
2018-03-24T05:23:08.991Z,4.30
2018-03-24T05:25:36.478Z,4.30
2018-03-24T05:28:03.959Z,4.40
2018-03-24T05:30:32.227Z,4.40
2018-03-24T05:32:59.702Z,4.40
2018-03-24T05:35:27.253Z,4.30
2018-03-24T05:37:54.738Z,4.20
2018-03-24T05:40:22.229Z,4.20
2018-03-24T05:42:50.502Z,4.10
2018-03-24T05:45:17.989Z,4.10
2018-03-24T05:50:19.374Z,4.10
2018-03-24T05:52:46.892Z,4.10
2018-03-24T05:55:14.387Z,4.20
2018-03-24T05:57:41.874Z,4.20
2018-03-24T06:00:09.350Z,4.10
2018-03-24T06:02:36.845Z,4.20
2018-03-24T06:05:05.087Z,4.30
2018-03-24T06:07:32.591Z,4.30
2018-03-24T06:10:00.838Z,4.20
2018-03-24T06:12:28.332Z,4.20
2018-03-24T06:14:55.829Z,4.20
2018-03-24T06:17:24.091Z,4.30
2018-03-24T06:19:51.585Z,4.30
2018-03-24T06:22:19.094Z,4.30
2018-03-24T06:24:46.597Z,4.40
2018-03-24T06:27:14.066Z,4.50
2018-03-24T06:29:41.578Z,4.50
2018-03-24T06:32:09.820Z,4.50
2018-03-24T06:34:37.343Z,4.50
2018-03-24T06:37:04.851Z,4.50
2018-03-24T06:39:32.349Z,4.50
2018-03-24T06:41:59.823Z,4.40
2018-03-24T06:44:27.324Z,4.40
2018-03-24T06:46:54.814Z,4.40
2018-03-24T06:49:22.330Z,4.40
2018-03-24T06:51:49.813Z,4.40
2018-03-24T06:54:18.084Z,4.60
2018-03-24T06:56:45.579Z,4.60
2018-03-24T06:59:13.850Z,4.40
2018-03-24T07:01:41.323Z,4.40
2018-03-24T07:04:08.813Z,4.50
2018-03-24T07:06:36.299Z,4.50
2018-03-24T07:09:03.783Z,4.60
2018-03-24T07:11:31.300Z,4.60
2018-03-24T07:13:58.776Z,4.70
2018-03-24T07:16:26.317Z,4.70
2018-03-24T07:18:53.804Z,4.90
2018-03-24T07:21:21.303Z,4.80
2018-03-24T07:23:49.544Z,4.90
2018-03-24T07:26:17.042Z,4.90
2018-03-24T07:28:44.552Z,4.90
2018-03-24T07:31:12.054Z,5.00
2018-03-24T07:33:39.526Z,5.00
2018-03-24T07:36:07.018Z,5.00
2018-03-24T07:38:34.509Z,5.10
2018-03-24T07:41:02.064Z,5.30
2018-03-24T07:43:29.538Z,5.30
2018-03-24T07:45:57.031Z,5.50
2018-03-24T07:48:25.110Z,5.50
2018-03-24T07:50:53.363Z,6.00
2018-03-24T07:53:20.855Z,6.00
2018-03-24T07:55:48.342Z,6.30
2018-03-24T07:58:16.597Z,6.60
2018-03-24T08:00:44.094Z,6.50
2018-03-24T08:03:12.376Z,6.60
2018-03-24T08:05:39.850Z,6.60
2018-03-24T08:08:07.350Z,6.70
2018-03-24T08:10:34.836Z,6.70
2018-03-24T08:13:02.350Z,6.80
2018-03-24T08:15:29.834Z,6.80
2018-03-24T08:17:57.326Z,6.90
2018-03-24T08:20:25.567Z,7.20
2018-03-24T08:22:53.062Z,7.20
2018-03-24T08:25:20.558Z,7.30
2018-03-24T08:27:48.054Z,7.30
2018-03-24T08:30:15.531Z,7.40
2018-03-24T08:32:43.011Z,7.50
2018-03-24T08:35:10.501Z,7.60
2018-03-24T08:37:37.971Z,7.70
2018-03-24T08:40:05.463Z,7.90
2018-03-24T08:42:33.709Z,8.10
2018-03-24T08:45:01.204Z,8.10
2018-03-24T08:47:28.674Z,8.20
2018-03-24T08:49:56.999Z,8.40
2018-03-24T08:52:24.467Z,8.30
2018-03-24T08:54:51.970Z,8.40
2018-03-24T08:57:19.442Z,8.50
2018-03-24T08:59:46.950Z,8.40
2018-03-24T09:02:14.438Z,8.40
2018-03-24T09:04:42.702Z,8.60
2018-03-24T09:07:10.181Z,8.60
2018-03-24T09:09:37.690Z,8.70
2018-03-24T09:12:05.202Z,8.70
2018-03-24T09:14:32.691Z,8.70
2018-03-24T09:17:00.186Z,8.60
2018-03-24T09:19:28.425Z,8.90
2018-03-24T09:21:55.933Z,8.90
2018-03-24T09:24:24.205Z,9.00
2018-03-24T09:26:51.714Z,8.90
2018-03-24T09:29:19.190Z,8.90
2018-03-24T09:31:46.682Z,8.80
2018-03-24T09:34:14.181Z,8.90
2018-03-24T09:36:41.682Z,8.90
2018-03-24T09:39:09.938Z,9.00
2018-03-24T09:41:37.444Z,9.10
2018-03-24T09:44:05.712Z,9.20
2018-03-24T09:46:33.234Z,9.20
2018-03-24T09:49:00.711Z,9.30
2018-03-24T09:51:28.221Z,9.40
2018-03-24T09:53:55.694Z,9.40
2018-03-24T09:56:23.166Z,9.60
2018-03-24T09:58:51.457Z,9.30
2018-03-24T10:01:21.502Z,9.30
2018-03-24T10:03:48.997Z,9.40
2018-03-24T10:06:16.471Z,9.50
2018-03-24T10:08:43.967Z,9.60
2018-03-24T10:11:11.445Z,9.80
2018-03-24T10:13:38.942Z,9.80
2018-03-24T10:16:07.183Z,10.00
2018-03-24T10:18:34.686Z,10.00
2018-03-24T10:24:26.876Z,10.20
2018-03-24T10:26:54.363Z,9.90
2018-03-24T10:29:22.622Z,10.00
2018-03-24T10:31:50.106Z,10.00
2018-03-24T10:34:17.594Z,9.80
2018-03-24T10:36:45.089Z,9.80
2018-03-24T10:39:12.590Z,9.80
2018-03-24T10:41:40.081Z,9.70
2018-03-24T10:44:07.566Z,9.70
2018-03-24T10:46:35.063Z,9.80
2018-03-24T10:49:02.542Z,10.00
2018-03-24T10:51:30.039Z,10.00
2018-03-24T10:53:57.519Z,9.90
2018-03-24T10:56:25.054Z,10.00
2018-03-24T10:58:52.554Z,10.10
2018-03-24T11:01:25.598Z,10.10
2018-03-24T11:03:53.086Z,10.30
2018-03-24T11:06:20.583Z,10.30
2018-03-24T11:08:48.054Z,10.20
2018-03-24T11:11:15.590Z,10.20
2018-03-24T11:13:43.035Z,10.30
2018-03-24T11:16:10.531Z,10.20
2018-03-24T11:18:38.010Z,10.20
2018-03-24T11:21:05.522Z,10.30
2018-03-24T11:23:33.006Z,10.40
2018-03-24T11:26:00.479Z,10.60
2018-03-24T11:28:27.983Z,10.80
2018-03-24T11:30:56.227Z,11.10
2018-03-24T11:33:23.722Z,11.10
2018-03-24T11:35:51.203Z,11.40
2018-03-24T11:38:19.470Z,11.30
2018-03-24T11:40:46.951Z,11.30
2018-03-24T11:43:14.455Z,11.40
2018-03-24T11:45:41.938Z,11.20
2018-03-24T11:48:09.441Z,11.40
2018-03-24T11:50:36.914Z,11.30
2018-03-24T11:53:05.184Z,11.40
2018-03-24T11:55:32.676Z,11.40
2018-03-24T11:58:00.193Z,11.40
2018-03-24T12:00:28.430Z,11.40
2018-03-24T12:02:55.934Z,11.40
2018-03-24T12:05:24.182Z,11.40
2018-03-24T12:07:51.657Z,11.30
2018-03-24T12:10:19.150Z,11.40
2018-03-24T12:12:46.626Z,11.30
2018-03-24T12:15:14.892Z,11.30
2018-03-24T12:17:42.367Z,11.30
2018-03-24T12:20:09.880Z,11.30
2018-03-24T12:22:37.366Z,11.50
2018-03-24T12:25:04.862Z,11.50
2018-03-24T12:27:32.344Z,11.60
2018-03-24T12:29:59.848Z,11.80
2018-03-24T12:32:28.095Z,11.70
2018-03-24T12:34:55.591Z,11.70
2018-03-24T12:37:23.078Z,11.90
2018-03-24T12:39:50.594Z,11.90
2018-03-24T12:42:18.082Z,12.00
2018-03-24T12:44:45.578Z,12.10
2018-03-24T12:47:13.082Z,12.00
2018-03-24T12:49:40.562Z,11.80
2018-03-24T12:52:08.053Z,11.70
2018-03-24T12:54:35.545Z,11.60
2018-03-24T12:57:03.087Z,11.80
2018-03-24T12:59:30.566Z,11.80
2018-03-24T13:01:58.063Z,11.80
2018-03-24T13:04:25.563Z,12.00
2018-03-24T13:06:53.812Z,12.10
2018-03-24T13:09:21.305Z,12.00
2018-03-24T13:11:49.106Z,12.20
2018-03-24T13:14:16.613Z,12.20
2018-03-24T13:16:44.110Z,12.40
2018-03-24T13:19:11.586Z,12.40
2018-03-24T13:21:39.081Z,12.40
2018-03-24T13:24:07.321Z,12.30
2018-03-24T13:26:34.903Z,12.30
2018-03-24T13:29:02.387Z,12.30
2018-03-24T13:31:29.879Z,12.10
2018-03-24T13:33:58.138Z,12.30
2018-03-24T13:36:25.634Z,12.30
2018-03-24T13:38:53.154Z,12.50
2018-03-24T13:41:20.643Z,12.60
2018-03-24T13:43:48.139Z,12.70
2018-03-24T13:46:16.391Z,12.90
2018-03-24T13:48:44.656Z,12.90
2018-03-24T13:51:12.146Z,12.90
2018-03-24T13:53:39.644Z,13.00
2018-03-24T13:56:07.122Z,12.80
2018-03-24T13:58:35.433Z,12.90
2018-03-24T14:01:03.682Z,13.00
2018-03-24T14:03:31.198Z,13.00
2018-03-24T14:05:58.674Z,13.10
2018-03-24T14:08:26.171Z,13.20
2018-03-24T14:10:53.647Z,13.30
2018-03-24T14:13:21.122Z,13.20
2018-03-24T14:15:48.657Z,12.90
2018-03-24T14:18:16.142Z,12.80
2018-03-24T14:20:43.639Z,12.90
2018-03-24T14:23:11.114Z,12.70
2018-03-24T14:25:38.614Z,12.60
2018-03-24T14:28:06.858Z,12.70
2018-03-24T14:30:34.357Z,12.70
2018-03-24T14:33:01.872Z,12.60
2018-03-24T14:35:29.350Z,12.60
2018-03-24T14:37:56.876Z,12.80
2018-03-24T14:40:24.343Z,12.80
2018-03-24T14:42:51.835Z,12.70
2018-03-24T14:45:20.090Z,12.90
2018-03-24T14:47:47.562Z,12.80
2018-03-24T14:50:15.086Z,12.80
2018-03-24T14:52:42.560Z,12.70
2018-03-24T14:55:10.056Z,12.60
2018-03-24T14:57:37.560Z,12.80
2018-03-24T15:00:05.804Z,12.60
2018-03-24T15:02:33.298Z,12.60
2018-03-24T15:05:00.800Z,12.60
2018-03-24T15:07:29.063Z,12.80
2018-03-24T15:09:56.573Z,12.80
2018-03-24T15:12:24.154Z,12.70
2018-03-24T15:14:51.628Z,12.60
2018-03-24T15:17:19.140Z,12.40
2018-03-24T15:19:46.655Z,12.50
2018-03-24T15:22:14.154Z,12.50
2018-03-24T15:24:41.646Z,12.30
2018-03-24T15:27:09.138Z,12.20
2018-03-24T15:29:48.550Z,11.90
2018-03-24T15:32:27.937Z,11.80
2018-03-24T15:35:07.215Z,11.90
2018-03-24T15:37:34.741Z,11.90
2018-03-24T15:40:02.242Z,11.90
2018-03-24T15:42:30.510Z,11.70
2018-03-24T15:44:58.011Z,11.70
2018-03-24T15:47:25.494Z,11.70
2018-03-24T15:49:52.999Z,11.70
2018-03-24T15:52:20.483Z,11.50
2018-03-24T15:54:47.975Z,11.60
2018-03-24T15:57:15.455Z,11.60
2018-03-24T15:59:43.714Z,11.50
2018-03-24T16:02:11.224Z,11.50
2018-03-24T16:04:38.717Z,11.50
2018-03-24T16:07:06.278Z,11.40
2018-03-24T16:09:33.774Z,11.40
2018-03-24T16:12:01.250Z,11.30
2018-03-24T16:14:28.755Z,11.20
2018-03-24T16:16:56.231Z,11.20
2018-03-24T16:19:23.740Z,11.20
2018-03-24T16:21:51.252Z,11.10
2018-03-24T16:24:18.731Z,11.10
2018-03-24T16:26:46.235Z,11.00
2018-03-24T16:29:13.732Z,11.10
2018-03-24T16:31:41.219Z,11.10
2018-03-24T16:34:08.698Z,11.00
2018-03-24T16:36:36.216Z,11.00
2018-03-24T16:39:03.715Z,10.70
2018-03-24T16:41:31.215Z,10.70
2018-03-24T16:43:58.700Z,10.70
2018-03-24T16:46:26.222Z,10.50
2018-03-24T16:48:53.702Z,10.60
2018-03-24T16:51:21.227Z,10.50
2018-03-24T16:53:50.007Z,10.50
2018-03-24T16:56:17.651Z,10.50
2018-03-24T16:58:45.238Z,10.50
2018-03-24T17:01:12.747Z,10.50
2018-03-24T17:03:40.990Z,10.40
2018-03-24T17:06:08.473Z,10.30
2018-03-24T17:08:36.825Z,10.20
2018-03-24T17:11:04.397Z,10.20
2018-03-24T17:13:31.902Z,10.20
2018-03-24T17:15:59.402Z,10.10
2018-03-24T17:18:26.919Z,10.10
2018-03-24T17:20:54.441Z,10.10
2018-03-24T17:23:22.980Z,9.90
2018-03-24T17:25:50.926Z,9.90
2018-03-24T17:28:18.755Z,9.90
2018-03-24T17:30:46.375Z,9.90
2018-03-24T17:33:13.905Z,9.80
2018-03-24T17:35:41.401Z,9.70
2018-03-24T17:38:08.880Z,9.80
2018-03-24T17:40:36.404Z,9.70
2018-03-24T17:43:03.906Z,9.60
2018-03-24T17:45:31.414Z,9.50
2018-03-24T17:47:59.656Z,9.40
2018-03-24T17:50:27.163Z,9.40
2018-03-24T17:52:56.029Z,9.50
2018-03-24T17:55:23.668Z,9.40
2018-03-24T17:57:51.159Z,9.40
2018-03-24T18:00:18.706Z,9.40
2018-03-24T18:02:46.179Z,9.30
2018-03-24T18:05:13.686Z,9.10
2018-03-24T18:07:41.182Z,9.00
2018-03-24T18:10:08.741Z,8.90
2018-03-24T18:12:36.251Z,8.80
2018-03-24T18:15:04.542Z,8.70
2018-03-24T18:17:32.804Z,8.80
2018-03-24T18:20:00.271Z,8.80
2018-03-24T18:22:28.805Z,8.80
2018-03-24T18:24:56.415Z,8.80
2018-03-24T18:27:23.919Z,8.80
2018-03-24T18:29:52.175Z,8.90
2018-03-24T18:32:19.673Z,8.80
2018-03-24T18:34:47.154Z,8.80
2018-03-24T18:37:14.774Z,8.60
2018-03-24T18:39:42.246Z,8.60
2018-03-24T18:42:09.808Z,8.60
2018-03-24T18:44:37.266Z,8.50
2018-03-24T18:47:05.674Z,8.40
2018-03-24T18:49:33.178Z,8.30
2018-03-24T18:52:00.683Z,8.20
2018-03-24T18:54:28.919Z,7.90
2018-03-24T18:56:56.432Z,7.90
2018-03-24T18:59:23.929Z,7.80
2018-03-24T19:01:51.431Z,7.70
2018-03-24T19:04:18.942Z,7.60
2018-03-24T19:06:46.448Z,7.50
2018-03-24T19:09:13.961Z,7.50
2018-03-24T19:11:41.462Z,7.50
2018-03-24T19:14:09.714Z,7.30
2018-03-24T19:16:37.220Z,7.30
2018-03-24T19:19:05.486Z,7.40
2018-03-24T19:21:32.992Z,7.40
2018-03-24T19:24:01.234Z,7.20
2018-03-24T19:26:28.735Z,7.20
2018-03-24T19:28:56.209Z,7.20
2018-03-24T19:31:24.468Z,7.10
2018-03-24T19:33:51.973Z,7.10
2018-03-24T19:36:20.245Z,6.90
2018-03-24T19:38:47.718Z,6.90
2018-03-24T19:41:15.222Z,6.80
2018-03-24T19:43:42.718Z,6.60
2018-03-24T19:46:10.214Z,6.50
2018-03-24T19:48:37.730Z,6.40
2018-03-24T19:51:05.217Z,6.40
2018-03-24T19:53:32.717Z,6.60
2018-03-24T19:56:00.190Z,6.50
2018-03-24T19:58:28.144Z,6.60
2018-03-24T20:00:55.612Z,6.40
2018-03-24T20:03:23.151Z,6.20
2018-03-24T20:05:50.622Z,6.10
2018-03-24T20:08:18.862Z,6.10
2018-03-24T20:10:46.402Z,6.10
2018-03-24T20:13:13.886Z,6.00
2018-03-24T20:15:41.391Z,6.00
2018-03-24T20:18:08.870Z,6.00
2018-03-24T20:20:36.378Z,5.90
2018-03-24T20:23:03.867Z,5.90
2018-03-24T20:25:31.396Z,6.00
2018-03-24T20:27:59.666Z,5.70
2018-03-24T20:30:27.162Z,5.70
2018-03-24T20:32:55.438Z,5.50
2018-03-24T20:35:22.940Z,5.50
2018-03-24T20:37:50.454Z,5.40
2018-03-24T20:40:17.966Z,5.40
2018-03-24T20:42:45.494Z,5.30
2018-03-24T20:45:12.982Z,5.20
2018-03-24T20:47:41.247Z,5.20
2018-03-24T20:50:09.518Z,5.10
2018-03-24T20:52:36.998Z,5.10
2018-03-24T20:55:04.500Z,5.00
2018-03-24T20:57:31.975Z,5.00
2018-03-24T20:59:59.472Z,4.90
2018-03-24T21:02:27.723Z,4.90
2018-03-24T21:04:55.223Z,4.80
2018-03-24T21:07:23.483Z,4.90
2018-03-24T21:09:50.988Z,4.90
2018-03-24T21:12:19.249Z,4.90
2018-03-24T21:14:46.760Z,4.90
2018-03-24T21:17:14.260Z,4.80
2018-03-24T21:19:41.775Z,4.80
2018-03-24T21:22:10.017Z,4.70
2018-03-24T21:24:37.514Z,4.60
2018-03-24T21:27:05.015Z,4.60
2018-03-24T21:29:33.267Z,4.50
2018-03-24T21:32:00.777Z,4.40
2018-03-24T21:34:29.028Z,4.50
2018-03-24T21:36:56.523Z,4.40
2018-03-24T21:39:24.811Z,4.40
2018-03-24T21:41:52.311Z,4.40
2018-03-24T21:44:19.782Z,4.30
2018-03-24T21:46:47.300Z,4.40
2018-03-24T21:49:14.779Z,4.30
2018-03-24T21:51:42.258Z,4.20
2018-03-24T21:54:09.776Z,4.20
2018-03-24T21:56:37.263Z,4.10
2018-03-24T21:59:04.845Z,4.10
2018-03-24T22:01:32.346Z,4.10
2018-03-24T22:03:59.845Z,4.00
2018-03-24T22:06:27.358Z,3.90
2018-03-24T22:08:54.826Z,3.80
2018-03-24T22:11:22.352Z,3.70
2018-03-24T22:13:49.852Z,3.70
2018-03-24T22:16:17.370Z,3.60
2018-03-24T22:18:44.845Z,3.60
2018-03-24T22:21:13.129Z,3.50
2018-03-24T22:23:40.606Z,3.40
2018-03-24T22:26:08.885Z,3.40
2018-03-24T22:28:36.389Z,3.40
2018-03-24T22:31:03.866Z,3.40
2018-03-24T22:33:31.375Z,3.40
2018-03-24T22:35:58.863Z,3.40
2018-03-24T22:38:26.361Z,3.40
2018-03-24T22:40:54.613Z,3.70
2018-03-24T22:43:22.139Z,3.70
2018-03-24T22:45:49.613Z,3.60
2018-03-24T22:48:17.096Z,3.50
2018-03-24T22:50:44.622Z,3.60
2018-03-24T22:53:12.872Z,3.30
2018-03-24T22:55:40.392Z,3.20
2018-03-24T22:58:07.879Z,3.30
2018-03-24T23:00:35.350Z,3.50
2018-03-24T23:03:02.846Z,3.40
2018-03-24T23:05:30.351Z,3.30
2018-03-24T23:07:57.907Z,3.20
2018-03-24T23:10:25.412Z,3.10
2018-03-24T23:12:53.679Z,3.10
2018-03-24T23:15:21.170Z,3.10
2018-03-24T23:17:49.439Z,3.00
2018-03-24T23:20:16.922Z,3.00
2018-03-24T23:22:44.434Z,3.00
2018-03-24T23:25:11.929Z,3.00
2018-03-24T23:27:39.426Z,3.30
2018-03-24T23:30:06.930Z,3.00
2018-03-24T23:32:34.438Z,2.90
2018-03-24T23:35:01.914Z,2.80
2018-03-24T23:37:29.423Z,3.00
2018-03-24T23:39:57.799Z,2.90
2018-03-24T23:42:25.281Z,2.90
2018-03-24T23:44:52.758Z,2.80
2018-03-24T23:47:21.038Z,2.70
2018-03-24T23:49:49.290Z,2.70
2018-03-24T23:52:16.803Z,2.60
2018-03-24T23:54:45.038Z,2.60
2018-03-24T23:57:12.573Z,2.50
2018-03-24T23:59:40.864Z,2.50
